Lincoln Regional/Karl Harder Field

KLHM · Californië, Verenigde Staten

METAR historie KLHM · Lincoln Regional/Karl Harder Field

Hieronder zie je METAR's van de afgelopen dagen. Kies een jaar om door oudere METAR's te bladeren, vanaf het jaar 2007.

20 juni 2024

Tijd Code Weer Temp. Zicht Plafond Wind METAR/SPECI
04:35
V
12 °C 10 mi - 160° 160° 6 kt METAR KLHM 201135Z AUTO 16006KT 10SM CLR 12/08 A2980 RMK AO1
04:15
V
12 °C 10 mi - 170° 170° 5 kt METAR KLHM 201115Z AUTO 17005KT 10SM CLR 12/09 A2980 RMK AO1
03:55
V
13 °C 10 mi - 180° 180° 4 kt METAR KLHM 201055Z AUTO 18004KT 10SM CLR 13/09 A2980 RMK AO1
03:35
V
13 °C 10 mi - 180° 180° 7 kt METAR KLHM 201035Z AUTO 18007KT 10SM CLR 13/09 A2980 RMK AO1
03:15
V
13 °C 10 mi - 170° 170° 7 kt METAR KLHM 201015Z AUTO 17007KT 10SM CLR 13/08 A2980 RMK AO1
02:55
V
15 °C 10 mi - 170° 170° 9 kt METAR KLHM 200955Z AUTO 17009KT 10SM CLR 15/08 A2980 RMK AO1
02:35
V
15 °C 10 mi - 170° 170° 8 kt METAR KLHM 200935Z AUTO 17008KT 10SM CLR 15/08 A2980 RMK AO1
02:15
V
15 °C 10 mi - 170° 170° 8 kt METAR KLHM 200915Z AUTO 17008KT 10SM CLR 15/08 A2980 RMK AO1
01:55
V
16 °C 10 mi - 150° 150° 7 kt METAR KLHM 200855Z AUTO 15007KT 10SM CLR 16/08 A2981 RMK AO1
01:35
V
16 °C 10 mi - 160° 160° 8 kt METAR KLHM 200835Z AUTO 16008KT 10SM CLR 16/08 A2981 RMK AO1
01:15
V
16 °C 10 mi - 150° 150° 7 kt METAR KLHM 200815Z AUTO 15007KT 10SM CLR 16/08 A2981 RMK AO1
00:55
V
16 °C 10 mi - 160° 160° 6 kt METAR KLHM 200755Z AUTO 16006KT 10SM CLR 16/08 A2982 RMK AO1
00:35
V
16 °C 10 mi - 170° 170° 6 kt METAR KLHM 200735Z AUTO 17006KT 10SM CLR 16/07 A2982 RMK AO1
00:15
V
17 °C 10 mi - 170° 170° 6 kt METAR KLHM 200715Z AUTO 17006KT 10SM CLR 17/07 A2982 RMK AO1

19 juni 2024

Tijd Code Weer Temp. Zicht Plafond Wind METAR/SPECI
23:55
V
18 °C 10 mi - 160° 160° 8 kt METAR KLHM 200655Z AUTO 16008KT 10SM CLR 18/07 A2981 RMK AO1
23:35
V
19 °C 10 mi - 160° 160° 8 kt METAR KLHM 200635Z AUTO 16008KT 10SM CLR 19/06 A2982 RMK AO1
23:15
V
20 °C 10 mi - 160° 160° 8 kt METAR KLHM 200615Z AUTO 16008KT 10SM CLR 20/06 A2981 RMK AO1
22:55
V
18 °C 10 mi - 160° 160° 6 kt METAR KLHM 200555Z AUTO 16006KT 10SM CLR 18/06 A2981 RMK AO1
22:35
V
19 °C 10 mi - 160° 160° 6 kt METAR KLHM 200535Z AUTO 16006KT 10SM CLR 19/06 A2981 RMK AO1
22:15
V
19 °C 10 mi - 170° 170° 4 kt METAR KLHM 200515Z AUTO 17004KT 10SM CLR 19/07 A2980 RMK AO1
21:55
V
20 °C 10 mi - 190° 190° 6 kt METAR KLHM 200455Z AUTO 19006KT 10SM CLR 20/07 A2980 RMK AO1
21:35
V
21 °C 10 mi - 180° 180° 6 kt METAR KLHM 200435Z AUTO 18006KT 10SM CLR 21/07 A2979 RMK AO1
21:15
V
21 °C 10 mi - 200° 200° 5 kt METAR KLHM 200415Z AUTO 20005KT 10SM CLR 21/08 A2978 RMK AO1
20:55
V
23 °C 10 mi - 200° 200° 6 kt METAR KLHM 200355Z AUTO 20006KT 10SM CLR 23/07 A2977 RMK AO1
20:35
V
25 °C 10 mi - 210° 210° 7 kt METAR KLHM 200335Z AUTO 21007KT 10SM CLR 25/05 A2977 RMK AO1
20:15
V
26 °C 10 mi - 210° 210° 7 kt METAR KLHM 200315Z AUTO 21007KT 10SM CLR 26/07 A2977 RMK AO1
19:55
V
28 °C 10 mi - 240° 240° 7 kt METAR KLHM 200255Z AUTO 24007KT 10SM CLR 28/05 A2976 RMK AO1
19:35
V
30 °C 10 mi - 240° 240° 3 kt METAR KLHM 200235Z AUTO 24003KT 10SM CLR 30/01 A2975 RMK AO1
19:15
V
30 °C 10 mi - 360° 360° 0 kt METAR KLHM 200215Z AUTO 00000KT 10SM CLR 30/00 A2975 RMK AO1
18:55
V
31 °C 10 mi - 260° 260° 3 kt METAR KLHM 200155Z AUTO 26003KT 10SM CLR 31/M01 A2975 RMK AO1
18:35
V
31 °C 10 mi - 280° 280° 5 kt METAR KLHM 200135Z AUTO 28005KT 10SM CLR 31/M01 A2975 RMK AO1
18:15
V
31 °C 10 mi - 220° 220° 4 kt METAR KLHM 200115Z AUTO 22004KT 10SM CLR 31/00 A2976 RMK AO1
17:55
V
31 °C 10 mi - 290° 290° 4 kt METAR KLHM 200055Z AUTO 29004KT 10SM CLR 31/00 A2976 RMK AO1
17:35
V
31 °C 10 mi - 290° 290° 6 kt METAR KLHM 200035Z AUTO 29006KT 10SM CLR 31/01 A2977 RMK AO1
17:15
V
31 °C 10 mi - 300° 300° 3 kt METAR KLHM 200015Z AUTO 30003KT 10SM CLR 31/M01 A2977 RMK AO1
16:55
V
31 °C 10 mi - 260° 260° 7 kt METAR KLHM 192355Z AUTO 26007KT 10SM CLR 31/00 A2977 RMK AO1
16:35
V
31 °C 10 mi - 220° 220° 5 kt METAR KLHM 192335Z AUTO 22005KT 10SM CLR 31/00 A2978 RMK AO1
16:15
V
31 °C 10 mi - 260° 260° 5 kt METAR KLHM 192315Z AUTO 26005KT 10SM CLR 31/00 A2978 RMK AO1
15:55
V
31 °C 10 mi - 290° 290° 5 kt METAR KLHM 192255Z AUTO 29005KT 10SM CLR 31/01 A2978 RMK AO1
15:35
V
31 °C 10 mi - 220° 220° 3 kt METAR KLHM 192235Z AUTO 22003KT 10SM CLR 31/02 A2979 RMK AO1
15:15
V
31 °C 10 mi - 290° 290° 4 kt METAR KLHM 192215Z AUTO 29004KT 10SM CLR 31/03 A2979 RMK AO1
14:55
V
31 °C 10 mi - 200° 200° 5 kt METAR KLHM 192155Z AUTO 20005KT 10SM CLR 31/03 A2980 RMK AO1
14:35
V
30 °C 10 mi - 280° 280° 4 kt METAR KLHM 192135Z AUTO 28004KT 10SM CLR 30/03 A2980 RMK AO1
14:15
V
30 °C 10 mi - 240° 240° 7 kt METAR KLHM 192115Z AUTO 24007KT 10SM CLR 30/04 A2981 RMK AO1
13:55
V
29 °C 10 mi - 270° 270° 5 kt METAR KLHM 192055Z AUTO 27005KT 10SM CLR 29/04 A2981 RMK AO1
13:35
V
29 °C 10 mi - 300° 300° 6 kt METAR KLHM 192035Z AUTO 30006KT 10SM CLR 29/03 A2982 RMK AO1
13:15
V
29 °C 10 mi - 300° 300° 4 kt METAR KLHM 192015Z AUTO 30004KT 10SM CLR 29/04 A2983 RMK AO1
12:55
V
28 °C 10 mi - 260° 260° 7 kt METAR KLHM 191955Z AUTO 26007KT 240V300 10SM CLR 28/03 A2983 RMK AO1
12:35
V
28 °C 10 mi - 270° 270° 8 kt METAR KLHM 191935Z AUTO 27008KT 10SM CLR 28/03 A2983 RMK AO1
12:15
V
28 °C 10 mi - 300° 300° 5 kt METAR KLHM 191915Z AUTO 30005KT 10SM CLR 28/03 A2983 RMK AO1
11:55
V
27 °C 10 mi - 240° 240° 6 kt METAR KLHM 191855Z AUTO 24006KT 10SM CLR 27/01 A2983 RMK AO1
11:35
V
27 °C 10 mi - 290° 290° 3 kt METAR KLHM 191835Z AUTO 29003KT 10SM CLR 27/01 A2983 RMK AO1
11:15
V
26 °C 10 mi - 210° 210° 3 kt METAR KLHM 191815Z AUTO 21003KT 10SM CLR 26/01 A2983 RMK AO1
10:55
V
25 °C 10 mi - 220° 220° 4 kt METAR KLHM 191755Z AUTO 22004KT 10SM CLR 25/01 A2983 RMK AO1
10:35
V
25 °C 10 mi - 360° 360° 0 kt METAR KLHM 191735Z AUTO 00000KT 10SM CLR 25/02 A2983 RMK AO1
10:15
V
24 °C 10 mi - 160° 160° 4 kt METAR KLHM 191715Z AUTO 16004KT 10SM CLR 24/02 A2983 RMK AO1
09:55
V
23 °C 10 mi - 360° 360° 0 kt METAR KLHM 191655Z AUTO 00000KT 10SM CLR 23/02 A2983 RMK AO1
09:35
V
22 °C 10 mi - 120° 120° 4 kt METAR KLHM 191635Z AUTO 12004KT 10SM CLR 22/02 A2983 RMK AO1
09:15
V
22 °C 10 mi - 150° 150° 3 kt METAR KLHM 191615Z AUTO 15003KT 10SM CLR 22/02 A2984 RMK AO1
08:55
V
21 °C 10 mi - 140° 140° 4 kt METAR KLHM 191555Z AUTO 14004KT 10SM CLR 21/03 A2983 RMK AO1
08:35
V
20 °C 10 mi - 160° 160° 5 kt METAR KLHM 191535Z AUTO 16005KT 10SM CLR 20/04 A2983 RMK AO1
08:15
V
19 °C 10 mi - 140° 140° 6 kt METAR KLHM 191515Z AUTO 14006KT 10SM CLR 19/05 A2983 RMK AO1
07:55
V
18 °C 10 mi - 140° 140° 4 kt METAR KLHM 191455Z AUTO 14004KT 10SM CLR 18/05 A2983 RMK AO1
07:35
V
17 °C 10 mi - 160° 160° 6 kt METAR KLHM 191435Z AUTO 16006KT 10SM CLR 17/05 A2982 RMK AO1
07:15
V
16 °C 10 mi - 160° 160° 6 kt METAR KLHM 191415Z AUTO 16006KT 10SM CLR 16/05 A2981 RMK AO1
06:55
V
15 °C 10 mi - 160° 160° 4 kt METAR KLHM 191355Z AUTO 16004KT 10SM CLR 15/05 A2981 RMK AO1
06:35
V
14 °C 10 mi - 160° 160° 5 kt METAR KLHM 191335Z AUTO 16005KT 10SM CLR 14/04 A2980 RMK AO1
06:15
V
14 °C 10 mi - 160° 160° 4 kt METAR KLHM 191315Z AUTO 16004KT 10SM CLR 14/04 A2980 RMK AO1
05:55
V
9 °C 10 mi - 360° 360° 0 kt METAR KLHM 191255Z AUTO 00000KT 10SM CLR 09/05 A2980 RMK AO1
05:35
V
10 °C 10 mi - 360° 360° 0 kt METAR KLHM 191235Z AUTO 00000KT 10SM CLR 10/04 A2980 RMK AO1
05:15
V
14 °C 10 mi - 170° 170° 3 kt METAR KLHM 191215Z AUTO 17003KT 10SM CLR 14/03 A2979 RMK AO1
04:55
V
13 °C 10 mi - 170° 170° 5 kt METAR KLHM 191155Z AUTO 17005KT 10SM CLR 13/03 A2978 RMK AO1
04:35
V
14 °C 10 mi - 180° 180° 5 kt METAR KLHM 191135Z AUTO 18005KT 10SM CLR 14/04 A2978 RMK AO1
04:15
V
14 °C 10 mi - 180° 180° 3 kt METAR KLHM 191115Z AUTO 18003KT 10SM CLR 14/05 A2977 RMK AO1
03:55
V
15 °C 10 mi - 160° 160° 5 kt METAR KLHM 191055Z AUTO 16005KT 10SM CLR 15/05 A2977 RMK AO1
03:35
V
14 °C 10 mi - 160° 160° 6 kt METAR KLHM 191035Z AUTO 16006KT 10SM CLR 14/03 A2977 RMK AO1
03:15
V
15 °C 10 mi - 160° 160° 5 kt METAR KLHM 191015Z AUTO 16005KT 10SM CLR 15/03 A2977 RMK AO1
02:55
V
15 °C 10 mi - 150° 150° 5 kt METAR KLHM 190955Z AUTO 15005KT 10SM CLR 15/03 A2977 RMK AO1
02:35
V
15 °C 10 mi - 150° 150° 5 kt METAR KLHM 190935Z AUTO 15005KT 10SM CLR 15/03 A2977 RMK AO1
02:15
V
16 °C 10 mi - 160° 160° 4 kt METAR KLHM 190915Z AUTO 16004KT 10SM CLR 16/03 A2977 RMK AO1
01:55
V
15 °C 10 mi - 360° 360° 0 kt METAR KLHM 190855Z AUTO 00000KT 10SM CLR 15/03 A2977 RMK AO1
01:35
V
17 °C 10 mi - 360° 360° 0 kt METAR KLHM 190835Z AUTO 00000KT 10SM CLR 17/04 A2977 RMK AO1
01:15
V
18 °C 10 mi - 120° 120° 4 kt METAR KLHM 190815Z AUTO 12004KT 10SM CLR 18/03 A2977 RMK AO1
00:55
V
18 °C 10 mi - 120° 120° 5 kt METAR KLHM 190755Z AUTO 12005KT 10SM CLR 18/04 A2978 RMK AO1
00:35
V
15 °C 10 mi - 090° 090° 8 kt METAR KLHM 190735Z AUTO 09008KT 10SM CLR 15/03 A2978 RMK AO1
00:15
V
15 °C 10 mi - 090° 090° 7 kt METAR KLHM 190715Z AUTO 09007KT 10SM CLR 15/03 A2978 RMK AO1

18 juni 2024

Tijd Code Weer Temp. Zicht Plafond Wind METAR/SPECI
23:55
V
15 °C 10 mi - 090° 090° 6 kt METAR KLHM 190655Z AUTO 09006KT 10SM CLR 15/03 A2978 RMK AO1
23:35
V
15 °C 10 mi - 110° 110° 4 kt METAR KLHM 190635Z AUTO 11004KT 10SM CLR 15/03 A2978 RMK AO1
23:15
V
15 °C 10 mi - 100° 100° 5 kt METAR KLHM 190615Z AUTO 10005KT 10SM CLR 15/04 A2978 RMK AO1
22:55
V
15 °C 10 mi - 110° 110° 3 kt METAR KLHM 190555Z AUTO 11003KT 10SM CLR 15/05 A2977 RMK AO1
22:35
V
15 °C 10 mi - 070° 070° 6 kt METAR KLHM 190535Z AUTO 07006KT 10SM CLR 15/05 A2976 RMK AO1
22:15
V
16 °C 10 mi - 090° 090° 4 kt METAR KLHM 190515Z AUTO 09004KT 10SM CLR 16/02 A2976 RMK AO1
21:55
V
16 °C 10 mi - 130° 130° 3 kt METAR KLHM 190455Z AUTO 13003KT 10SM CLR 16/05 A2976 RMK AO1
21:35
V
17 °C 10 mi - 360° 360° 0 kt METAR KLHM 190435Z AUTO 00000KT 10SM CLR 17/04 A2975 RMK AO1
21:15
V
24 °C 10 mi - 360° 360° 0 kt METAR KLHM 190415Z AUTO 00000KT 10SM CLR 24/05 A2974 RMK AO1
20:55
V
22 °C 10 mi - 210° 210° 3 kt METAR KLHM 190355Z AUTO 21003KT 10SM CLR 22/02 A2974 RMK AO1
20:35
V
24 °C 10 mi - 200° 200° 3 kt METAR KLHM 190335Z AUTO 20003KT 10SM CLR 24/03 A2974 RMK AO1
20:15
V
25 °C 10 mi - 360° 360° 0 kt METAR KLHM 190315Z AUTO 00000KT 10SM CLR 25/03 A2974 RMK AO1
19:55
V
27 °C 10 mi - 360° 360° 0 kt METAR KLHM 190255Z AUTO 00000KT 10SM CLR 27/00 A2974 RMK AO1
19:35
V
27 °C 10 mi - 360° 360° 0 kt METAR KLHM 190235Z AUTO 00000KT 10SM CLR 27/M01 A2974 RMK AO1
19:15
V
28 °C 10 mi - 360° 360° 0 kt METAR KLHM 190215Z AUTO 00000KT 10SM CLR 28/M02 A2974 RMK AO1
18:55
V
29 °C 10 mi - 360° 360° 0 kt METAR KLHM 190155Z AUTO 00000KT 10SM CLR 29/M04 A2973 RMK AO1
18:35
V
30 °C 10 mi - 350° 350° 3 kt METAR KLHM 190135Z AUTO 35003KT 10SM CLR 30/M02 A2973 RMK AO1
18:15
V
30 °C 10 mi - 290° 290° 4 kt METAR KLHM 190115Z AUTO 29004KT 10SM CLR 30/M03 A2973 RMK AO1
17:55
V
30 °C 10 mi - 290° 290° 4 kt METAR KLHM 190055Z AUTO 29004KT 10SM CLR 30/M03 A2973 RMK AO1
17:35
V
30 °C 10 mi - 270° 270° 5 kt METAR KLHM 190035Z AUTO 27005KT 10SM CLR 30/M03 A2973 RMK AO1
17:15
V
30 °C 10 mi - 280° 280° 6 kt METAR KLHM 190015Z AUTO 28006KT 10SM CLR 30/M02 A2974 RMK AO1
16:55
V
31 °C 10 mi - 210° 210° 5 kt METAR KLHM 182355Z AUTO 21005KT 10SM CLR 31/M04 A2974 RMK AO1
16:35
V
31 °C 10 mi - 250° 250° 6 kt METAR KLHM 182335Z AUTO 25006KT 10SM CLR 31/M02 A2975 RMK AO1
16:15
V
31 °C 10 mi - 290° 290° 6 kt METAR KLHM 182315Z AUTO 29006KT 10SM CLR 31/M01 A2976 RMK AO1
15:55
V
30 °C 10 mi - 280° 280° 7 kt METAR KLHM 182255Z AUTO 28007KT 10SM CLR 30/M01 A2976 RMK AO1
15:35
V
30 °C 10 mi - 270° 270° 6 kt METAR KLHM 182235Z AUTO 27006KT 10SM CLR 30/00 A2977 RMK AO1
15:15
V
30 °C 10 mi - 240° 240° 5 kt METAR KLHM 182215Z AUTO 24005KT 10SM CLR 30/01 A2977 RMK AO1
14:55
V
30 °C 10 mi - 280° 280° 5 kt METAR KLHM 182155Z AUTO 28005KT 10SM CLR 30/02 A2977 RMK AO1
14:35
V
29 °C 10 mi - 260° 260° 4 kt METAR KLHM 182135Z AUTO 26004KT 10SM CLR 29/01 A2977 RMK AO1
14:15
V
29 °C 10 mi - 290° 290° 3 kt METAR KLHM 182115Z AUTO 29003KT 10SM CLR 29/01 A2978 RMK AO1
13:55
V
29 °C 10 mi - 240° 240° 3 kt METAR KLHM 182055Z AUTO 24003KT 10SM CLR 29/00 A2978 RMK AO1
13:35
V
28 °C 10 mi - 250° 250° 6 kt METAR KLHM 182035Z AUTO 25006KT 10SM CLR 28/00 A2978 RMK AO1
13:15
V
28 °C 10 mi - 290° 290° 7 kt METAR KLHM 182015Z AUTO 29007KT 10SM CLR 28/00 A2978 RMK AO1
12:55
V
28 °C 10 mi - 260° 260° 5 kt METAR KLHM 181955Z AUTO 26005KT 10SM CLR 28/00 A2979 RMK AO1
12:35
V
28 °C 10 mi - 260° 260° 6 kt METAR KLHM 181935Z AUTO 26006KT 10SM CLR 28/M01 A2979 RMK AO1
12:15
V
27 °C 10 mi - 270° 270° 4 kt METAR KLHM 181915Z AUTO 27004KT 10SM CLR 27/M01 A2979 RMK AO1
11:55
V
27 °C 10 mi - 250° 250° 6 kt METAR KLHM 181855Z AUTO 25006KT 10SM CLR 27/00 A2979 RMK AO1
11:35
V
26 °C 10 mi - 280° 280° 4 kt METAR KLHM 181835Z AUTO 28004KT 10SM CLR 26/M01 A2980 RMK AO1
11:15
V
26 °C 10 mi - 170° 170° 5 kt METAR KLHM 181815Z AUTO 17005KT 10SM CLR 26/M01 A2980 RMK AO1
10:55
V
25 °C 10 mi - 240° 240° 5 kt METAR KLHM 181755Z AUTO 24005KT 10SM CLR 25/00 A2980 RMK AO1
10:35
V
24 °C 10 mi - 210° 210° 4 kt METAR KLHM 181735Z AUTO 21004KT 10SM CLR 24/00 A2980 RMK AO1
10:15
V
23 °C 10 mi - 360° 360° 0 kt METAR KLHM 181715Z AUTO 00000KT 10SM CLR 23/01 A2980 RMK AO1
09:55
V
23 °C 10 mi - 140° 140° 4 kt METAR KLHM 181655Z AUTO 14004KT 10SM CLR 23/02 A2980 RMK AO1
09:35
V
22 °C 10 mi - 360° 360° 0 kt METAR KLHM 181635Z AUTO 00000KT 10SM CLR 22/00 A2980 RMK AO1
09:15
V
21 °C 10 mi - 230° 230° 3 kt METAR KLHM 181615Z AUTO 23003KT 10SM CLR 21/01 A2980 RMK AO1
08:55
V
20 °C 10 mi - 360° 360° 0 kt METAR KLHM 181555Z AUTO 00000KT 10SM CLR 20/01 A2980 RMK AO1
08:35
V
20 °C 10 mi - 350° 350° 3 kt METAR KLHM 181535Z AUTO 35003KT 10SM CLR 20/03 A2979 RMK AO1
08:15
V
18 °C 10 mi - 320° 320° 4 kt METAR KLHM 181515Z AUTO 32004KT 10SM CLR 18/03 A2979 RMK AO1
07:55
V
17 °C 10 mi - 350° 350° 5 kt METAR KLHM 181455Z AUTO 35005KT 10SM CLR 17/05 A2978 RMK AO1
07:35
V
16 °C 10 mi - 340° 340° 4 kt METAR KLHM 181435Z AUTO 34004KT 10SM CLR 16/05 A2978 RMK AO1
07:15
V
13 °C 10 mi - 360° 360° 0 kt METAR KLHM 181415Z AUTO 00000KT 10SM CLR 13/05 A2978 RMK AO1
06:55
V
11 °C 10 mi - 360° 360° 0 kt METAR KLHM 181355Z AUTO 00000KT 10SM CLR 11/04 A2978 RMK AO1
06:35
V
10 °C 10 mi - 360° 360° 0 kt METAR KLHM 181335Z AUTO 00000KT 10SM CLR 10/03 A2977 RMK AO1
06:15
V
11 °C 10 mi - 350° 350° 3 kt METAR KLHM 181315Z AUTO 35003KT 10SM CLR 11/04 A2977 RMK AO1
05:55
V
10 °C 10 mi - 010° 010° 3 kt METAR KLHM 181255Z AUTO 01003KT 10SM CLR 10/04 A2976 RMK AO1
05:35
V
10 °C 10 mi - 360° 360° 7 kt METAR KLHM 181235Z AUTO 36007KT 10SM CLR 10/04 A2975 RMK AO1
05:15
V
10 °C 10 mi - 350° 350° 6 kt METAR KLHM 181215Z AUTO 35006KT 10SM CLR 10/05 A2975 RMK AO1
04:55
V
10 °C 10 mi - 350° 350° 4 kt METAR KLHM 181155Z AUTO 35004KT 10SM CLR 10/05 A2975 RMK AO1
04:35
V
11 °C 10 mi - 350° 350° 7 kt METAR KLHM 181135Z AUTO 35007KT 10SM CLR 11/05 A2974 RMK AO1
04:15
V
11 °C 10 mi - 350° 350° 7 kt METAR KLHM 181115Z AUTO 35007KT 10SM CLR 11/05 A2974 RMK AO1
03:55
V
12 °C 10 mi - 350° 350° 6 kt METAR KLHM 181055Z AUTO 35006KT 10SM CLR 12/05 A2974 RMK AO1
03:35
V
11 °C 10 mi - 350° 350° 6 kt METAR KLHM 181035Z AUTO 35006KT 10SM CLR 11/03 A2973 RMK AO1
03:15
V
12 °C 10 mi - 350° 350° 5 kt METAR KLHM 181015Z AUTO 35005KT 10SM CLR 12/03 A2974 RMK AO1
02:55
V
12 °C 10 mi - 340° 340° 8 kt METAR KLHM 180955Z AUTO 34008KT 10SM CLR 12/03 A2974 RMK AO1
02:35
V
12 °C 10 mi - 350° 350° 6 kt METAR KLHM 180935Z AUTO 35006KT 10SM CLR 12/03 A2974 RMK AO1
02:15
V
13 °C 10 mi - 350° 350° 7 kt METAR KLHM 180915Z AUTO 35007KT 10SM CLR 13/03 A2974 RMK AO1
01:55
V
12 °C 10 mi - 350° 350° 7 kt METAR KLHM 180855Z AUTO 35007KT 10SM CLR 12/03 A2974 RMK AO1
01:35
V
12 °C 10 mi - 350° 350° 7 kt METAR KLHM 180835Z AUTO 35007KT 10SM CLR 12/03 A2975 RMK AO1
01:15
V
12 °C 10 mi - 020° 020° 4 kt METAR KLHM 180815Z AUTO 02004KT 10SM CLR 12/02 A2975 RMK AO1
00:55
V
13 °C 10 mi - 350° 350° 4 kt METAR KLHM 180755Z AUTO 35004KT 10SM CLR 13/04 A2975 RMK AO1
00:35
V
14 °C 10 mi - 320° 320° 7 kt METAR KLHM 180735Z AUTO 32007KT 10SM CLR 14/03 A2976 RMK AO1
00:15
V
15 °C 10 mi - 330° 330° 8 kt METAR KLHM 180715Z AUTO 33008KT 10SM CLR 15/05 A2976 RMK AO1

17 juni 2024

Tijd Code Weer Temp. Zicht Plafond Wind METAR/SPECI
23:55
V
13 °C 10 mi - 280° 280° 3 kt METAR KLHM 180655Z AUTO 28003KT 10SM CLR 13/02 A2977 RMK AO1
23:15
V
15 °C 10 mi - 010° 010° 4 kt METAR KLHM 180615Z AUTO 01004KT 10SM CLR 15/02 A2977 RMK AO1
22:55
V
17 °C 10 mi - 330° 330° 7 kt METAR KLHM 180555Z AUTO 33007KT 10SM CLR 17/02 A2978 RMK AO1
Wijziging doorgeven